Terminal Aerodrome Forecast
Issued by NWS

Home | Current Version | Previous Version | Text Only | Print | Product List | Glossary On
Versions: 1 2 3 4 5 6 7 8 9 10 11 12 13 14 15 16 17 18 19 20 21 22
000
FTUS42 KJAX 241725
TAFVQQ
TAF
KVQQ 241725Z 2418/2518 12007KT P6SM VCTS SCT035CB BKN120
      TEMPO 2419/2423 VRB15G25KT 3SM TSRA BR BKN030CB
     FM250000 VRB03KT P6SM VCSH BKN040 BKN250
     FM250300 VRB03KT P6SM SCT040 BKN250
     FM251500 13006KT P6SM SCT030 BKN250=

USA.gov is the U.S. government's official web portal to all federal, state and local government web resources and services.